sensor_id;sensor_type;location;lat;lon;timestamp;pressure;altitude;pressure_sealevel;temperature;humidity
75521;BME280;64102;48.628;9.002;2023-06-14T00:00:10;95622.94;;;10.15;65.65
75521;BME280;64102;48.628;9.002;2023-06-14T00:02:38;95627.63;;;10.02;65.51
75521;BME280;64102;48.628;9.002;2023-06-14T00:05:05;95628.50;;;9.93;66.09
75521;BME280;64102;48.628;9.002;2023-06-14T00:07:39;95629.81;;;9.97;65.64
75521;BME280;64102;48.628;9.002;2023-06-14T00:10:08;95620.53;;;9.86;65.97
75521;BME280;64102;48.628;9.002;2023-06-14T00:12:33;95624.44;;;9.91;65.97
75521;BME280;64102;48.628;9.002;2023-06-14T00:14:59;95621.50;;;9.85;66.85
75521;BME280;64102;48.628;9.002;2023-06-14T00:17:26;95618.44;;;10.00;65.71
75521;BME280;64102;48.628;9.002;2023-06-14T00:19:58;95621.19;;;9.88;65.47
75521;BME280;64102;48.628;9.002;2023-06-14T00:22:24;95629.97;;;9.51;65.90
75521;BME280;64102;48.628;9.002;2023-06-14T00:24:51;95634.47;;;9.39;68.25
75521;BME280;64102;48.628;9.002;2023-06-14T00:27:16;95629.19;;;9.40;70.66
75521;BME280;64102;48.628;9.002;2023-06-14T00:29:41;95631.88;;;9.12;70.92
75521;BME280;64102;48.628;9.002;2023-06-14T00:32:07;95631.28;;;8.81;72.21
75521;BME280;64102;48.628;9.002;2023-06-14T00:34:33;95625.09;;;8.64;73.17
75521;BME280;64102;48.628;9.002;2023-06-14T00:36:59;95615.03;;;8.80;72.08
75521;BME280;64102;48.628;9.002;2023-06-14T00:39:24;95613.44;;;9.16;69.44
75521;BME280;64102;48.628;9.002;2023-06-14T00:41:49;95613.41;;;9.26;68.73
75521;BME280;64102;48.628;9.002;2023-06-14T00:44:16;95615.56;;;9.21;68.71
75521;BME280;64102;48.628;9.002;2023-06-14T00:46:42;95629.28;;;9.12;69.87
75521;BME280;64102;48.628;9.002;2023-06-14T00:49:08;95622.50;;;9.11;70.01
75521;BME280;64102;48.628;9.002;2023-06-14T00:51:33;95619.81;;;9.12;70.04
75521;BME280;64102;48.628;9.002;2023-06-14T00:53:59;95619.91;;;9.20;69.61
75521;BME280;64102;48.628;9.002;2023-06-14T00:56:24;95615.84;;;9.27;69.98
75521;BME280;64102;48.628;9.002;2023-06-14T00:58:50;95619.91;;;9.20;70.68
75521;BME280;64102;48.628;9.002;2023-06-14T01:01:16;95622.38;;;9.12;71.00
75521;BME280;64102;48.628;9.002;2023-06-14T01:03:41;95617.00;;;9.06;71.43
75521;BME280;64102;48.628;9.002;2023-06-14T01:06:20;95622.41;;;9.03;72.02
75521;BME280;64102;48.628;9.002;2023-06-14T01:12:05;95619.84;;;9.03;72.07
75521;BME280;64102;48.628;9.002;2023-06-14T01:14:33;95616.22;;;8.95;71.89
75521;BME280;64102;48.628;9.002;2023-06-14T01:17:00;95620.97;;;8.90;71.95
75521;BME280;64102;48.628;9.002;2023-06-14T01:19:26;95621.00;;;8.81;72.06
75521;BME280;64102;48.628;9.002;2023-06-14T01:21:54;95616.53;;;8.83;71.79
75521;BME280;64102;48.628;9.002;2023-06-14T01:24:20;95608.53;;;8.76;72.40
75521;BME280;64102;48.628;9.002;2023-06-14T01:26:52;95612.63;;;8.79;72.31
75521;BME280;64102;48.628;9.002;2023-06-14T01:29:22;95620.16;;;8.80;71.26
75521;BME280;64102;48.628;9.002;2023-06-14T01:31:47;95618.03;;;8.66;72.58
75521;BME280;64102;48.628;9.002;2023-06-14T01:34:14;95620.47;;;8.58;73.24
75521;BME280;64102;48.628;9.002;2023-06-14T01:36:41;95616.03;;;8.41;73.87
75521;BME280;64102;48.628;9.002;2023-06-14T01:39:13;95614.13;;;8.24;73.74
75521;BME280;64102;48.628;9.002;2023-06-14T01:41:40;95622.50;;;8.06;74.64
75521;BME280;64102;48.628;9.002;2023-06-14T01:44:06;95620.34;;;8.12;74.92
75521;BME280;64102;48.628;9.002;2023-06-14T01:46:31;95620.34;;;8.12;74.99
75521;BME280;64102;48.628;9.002;2023-06-14T01:48:57;95618.03;;;8.08;75.50
75521;BME280;64102;48.628;9.002;2023-06-14T01:51:23;95619.97;;;8.26;74.75
75521;BME280;64102;48.628;9.002;2023-06-14T01:53:48;95622.00;;;8.32;74.84
75521;BME280;64102;48.628;9.002;2023-06-14T01:56:13;95617.25;;;8.46;74.43
75521;BME280;64102;48.628;9.002;2023-06-14T01:58:39;95615.22;;;8.50;73.42
75521;BME280;64102;48.628;9.002;2023-06-14T02:01:05;95618.06;;;8.47;73.91
75521;BME280;64102;48.628;9.002;2023-06-14T02:03:31;95615.09;;;8.42;74.64
75521;BME280;64102;48.628;9.002;2023-06-14T02:05:57;95624.44;;;8.33;75.16
75521;BME280;64102;48.628;9.002;2023-06-14T02:08:23;95619.44;;;8.32;75.34
75521;BME280;64102;48.628;9.002;2023-06-14T02:10:48;95621.06;;;8.52;74.29
75521;BME280;64102;48.628;9.002;2023-06-14T02:13:14;95618.06;;;8.47;73.99
75521;BME280;64102;48.628;9.002;2023-06-14T02:15:39;95622.81;;;8.42;74.42
75521;BME280;64102;48.628;9.002;2023-06-14T02:18:05;95621.06;;;8.42;74.38
75521;BME280;64102;48.628;9.002;2023-06-14T02:20:30;95620.66;;;8.37;74.74
75521;BME280;64102;48.628;9.002;2023-06-14T02:22:56;95625.09;;;8.35;74.81
75521;BME280;64102;48.628;9.002;2023-06-14T02:25:22;95623.47;;;8.44;73.85
75521;BME280;64102;48.628;9.002;2023-06-14T02:27:47;95626.59;;;8.38;74.29
75521;BME280;64102;48.628;9.002;2023-06-14T02:30:13;95619.44;;;8.41;74.30
75521;BME280;64102;48.628;9.002;2023-06-14T02:32:38;95612.50;;;8.23;74.27
75521;BME280;64102;48.628;9.002;2023-06-14T02:35:06;95624.00;;;8.09;75.41
75521;BME280;64102;48.628;9.002;2023-06-14T02:37:31;95621.44;;;7.90;75.78
75521;BME280;64102;48.628;9.002;2023-06-14T02:39:57;95613.31;;;7.94;76.88
75521;BME280;64102;48.628;9.002;2023-06-14T02:42:22;95624.41;;;8.04;76.36
75521;BME280;64102;48.628;9.002;2023-06-14T02:44:47;95612.78;;;8.20;75.64
75521;BME280;64102;48.628;9.002;2023-06-14T02:47:17;95611.97;;;8.19;74.80
75521;BME280;64102;48.628;9.002;2023-06-14T02:49:42;95612.38;;;8.15;75.09
75521;BME280;64102;48.628;9.002;2023-06-14T02:52:08;95612.78;;;8.20;75.83
75521;BME280;64102;48.628;9.002;2023-06-14T02:54:34;95619.16;;;8.25;74.66
75521;BME280;64102;48.628;9.002;2023-06-14T02:56:59;95615.22;;;8.12;75.07
75521;BME280;64102;48.628;9.002;2023-06-14T02:59:25;95616.97;;;8.21;75.30
75521;BME280;64102;48.628;9.002;2023-06-14T03:01:50;95603.97;;;8.22;74.23
75521;BME280;64102;48.628;9.002;2023-06-14T03:04:15;95606.00;;;8.19;74.24
75521;BME280;64102;48.628;9.002;2023-06-14T03:06:41;95608.16;;;8.14;74.49
75521;BME280;64102;48.628;9.002;2023-06-14T03:09:09;95610.59;;;8.05;74.52
75521;BME280;64102;48.628;9.002;2023-06-14T03:11:35;95611.94;;;7.90;75.57
75521;BME280;64102;48.628;9.002;2023-06-14T03:14:01;95613.03;;;7.97;74.62
75521;BME280;64102;48.628;9.002;2023-06-14T03:16:28;95614.69;;;7.98;75.04
75521;BME280;64102;48.628;9.002;2023-06-14T03:18:55;95615.75;;;8.05;75.04
75521;BME280;64102;48.628;9.002;2023-06-14T03:21:21;95621.16;;;8.02;74.98
75521;BME280;64102;48.628;9.002;2023-06-14T03:23:47;95621.41;;;7.99;74.70
75521;BME280;64102;48.628;9.002;2023-06-14T03:26:13;95618.31;;;7.96;74.98
75521;BME280;64102;48.628;9.002;2023-06-14T03:28:39;95629.94;;;8.09;74.86
75521;BME280;64102;48.628;9.002;2023-06-14T03:31:04;95634.28;;;8.09;74.74
75521;BME280;64102;48.628;9.002;2023-06-14T03:33:30;95636.03;;;8.18;74.19
75521;BME280;64102;48.628;9.002;2023-06-14T03:35:55;95636.91;;;8.38;73.21
75521;BME280;64102;48.628;9.002;2023-06-14T03:38:21;95639.59;;;8.36;73.64
75521;BME280;64102;48.628;9.002;2023-06-14T03:40:47;95636.34;;;8.34;73.99
75521;BME280;64102;48.628;9.002;2023-06-14T03:43:12;95641.75;;;8.41;73.68
75521;BME280;64102;48.628;9.002;2023-06-14T03:45:38;95639.34;;;8.30;74.07
75521;BME280;64102;48.628;9.002;2023-06-14T03:48:03;95634.69;;;8.24;74.62
75521;BME280;64102;48.628;9.002;2023-06-14T03:50:31;95645.41;;;8.48;74.05
75521;BME280;64102;48.628;9.002;2023-06-14T03:52:57;95646.31;;;8.66;72.66
75521;BME280;64102;48.628;9.002;2023-06-14T03:55:22;95641.47;;;8.63;73.47
75521;BME280;64102;48.628;9.002;2023-06-14T03:57:50;95642.78;;;8.77;72.42
75521;BME280;64102;48.628;9.002;2023-06-14T04:00:16;95649.16;;;8.82;72.14
75521;BME280;64102;48.628;9.002;2023-06-14T04:02:41;95644.41;;;8.97;72.09
75521;BME280;64102;48.628;9.002;2023-06-14T04:05:09;95654.94;;;9.04;71.45
75521;BME280;64102;48.628;9.002;2023-06-14T04:07:34;95656.38;;;9.16;70.77
75521;BME280;64102;48.628;9.002;2023-06-14T04:10:06;95661.38;;;9.27;70.45
75521;BME280;64102;48.628;9.002;2023-06-14T04:12:32;95662.94;;;9.37;69.92
75521;BME280;64102;48.628;9.002;2023-06-14T04:14:57;95658.03;;;9.44;69.80
75521;BME280;64102;48.628;9.002;2023-06-14T04:17:22;95659.69;;;9.45;71.12
75521;BME280;64102;48.628;9.002;2023-06-14T04:19:48;95667.78;;;9.50;70.85
75521;BME280;64102;48.628;9.002;2023-06-14T04:22:13;95666.78;;;9.61;70.30
75521;BME280;64102;48.628;9.002;2023-06-14T04:24:38;95673.59;;;9.79;69.42
75521;BME280;64102;48.628;9.002;2023-06-14T04:27:04;95675.44;;;9.87;68.98
75521;BME280;64102;48.628;9.002;2023-06-14T04:29:29;95676.72;;;10.01;69.62
75521;BME280;64102;48.628;9.002;2023-06-14T04:31:56;95672.84;;;10.14;68.89
75521;BME280;64102;48.628;9.002;2023-06-14T04:34:28;95670.19;;;10.33;68.42
75521;BME280;64102;48.628;9.002;2023-06-14T04:36:57;95677.91;;;10.51;67.98
75521;BME280;64102;48.628;9.002;2023-06-14T04:39:24;95676.50;;;10.74;66.25
75521;BME280;64102;48.628;9.002;2023-06-14T04:41:51;95679.56;;;10.96;65.16
75521;BME280;64102;48.628;9.002;2023-06-14T04:44:18;95674.81;;;11.09;65.41
75521;BME280;64102;48.628;9.002;2023-06-14T04:46:47;95677.78;;;11.22;64.44
75521;BME280;64102;48.628;9.002;2023-06-14T04:49:14;95683.34;;;11.35;63.87
75521;BME280;64102;48.628;9.002;2023-06-14T04:51:41;95688.28;;;11.46;63.13
75521;BME280;64102;48.628;9.002;2023-06-14T04:54:08;95692.22;;;11.58;62.77
75521;BME280;64102;48.628;9.002;2023-06-14T04:56:35;95692.09;;;11.68;62.39
75521;BME280;64102;48.628;9.002;2023-06-14T04:59:02;95694.28;;;11.81;62.13
75521;BME280;64102;48.628;9.002;2023-06-14T05:01:30;95692.75;;;12.04;60.62
75521;BME280;64102;48.628;9.002;2023-06-14T05:03:56;95706.38;;;12.22;60.22
75521;BME280;64102;48.628;9.002;2023-06-14T05:06:21;95705.78;;;12.36;60.47
75521;BME280;64102;48.628;9.002;2023-06-14T05:08:47;95700.28;;;12.47;59.95
75521;BME280;64102;48.628;9.002;2023-06-14T05:11:12;95709.69;;;12.56;59.41
75521;BME280;64102;48.628;9.002;2023-06-14T05:13:38;95704.38;;;12.66;59.62
75521;BME280;64102;48.628;9.002;2023-06-14T05:16:05;95700.66;;;12.85;59.16
75521;BME280;64102;48.628;9.002;2023-06-14T05:18:31;95702.28;;;13.02;58.18
75521;BME280;64102;48.628;9.002;2023-06-14T05:20:59;95695.66;;;13.16;57.42
75521;BME280;64102;48.628;9.002;2023-06-14T05:23:25;95701.78;;;13.31;56.68
75521;BME280;64102;48.628;9.002;2023-06-14T05:25:50;95705.66;;;13.43;55.97
75521;BME280;64102;48.628;9.002;2023-06-14T05:28:15;95700.44;;;13.59;55.76
75521;BME280;64102;48.628;9.002;2023-06-14T05:30:41;95701.66;;;13.79;55.38
75521;BME280;64102;48.628;9.002;2023-06-14T05:33:07;95706.78;;;13.96;56.20
75521;BME280;64102;48.628;9.002;2023-06-14T05:35:32;95712.88;;;14.11;55.23
75521;BME280;64102;48.628;9.002;2023-06-14T05:37:57;95712.28;;;14.40;57.01
75521;BME280;64102;48.628;9.002;2023-06-14T05:40:23;95719.34;;;14.54;55.69
75521;BME280;64102;48.628;9.002;2023-06-14T05:42:48;95712.84;;;14.81;55.89
75521;BME280;64102;48.628;9.002;2023-06-14T05:45:14;95720.78;;;15.02;55.54
75521;BME280;64102;48.628;9.002;2023-06-14T05:47:41;95715.13;;;15.21;56.05
75521;BME280;64102;48.628;9.002;2023-06-14T05:50:06;95715.81;;;15.52;55.90
75521;BME280;64102;48.628;9.002;2023-06-14T05:52:33;95721.78;;;15.76;54.21
75521;BME280;64102;48.628;9.002;2023-06-14T05:54:59;95717.53;;;16.69;53.00
75521;BME280;64102;48.628;9.002;2023-06-14T05:57:25;95724.13;;;17.91;47.02
75521;BME280;64102;48.628;9.002;2023-06-14T05:59:50;95721.63;;;18.58;43.30
75521;BME280;64102;48.628;9.002;2023-06-14T06:02:16;95721.31;;;19.20;42.55
75521;BME280;64102;48.628;9.002;2023-06-14T06:04:41;95727.13;;;20.08;40.55
75521;BME280;64102;48.628;9.002;2023-06-14T06:07:07;95720.88;;;19.96;39.70
75521;BME280;64102;48.628;9.002;2023-06-14T06:09:32;95729.06;;;20.19;38.96
75521;BME280;64102;48.628;9.002;2023-06-14T06:11:58;95723.47;;;20.98;38.80
75521;BME280;64102;48.628;9.002;2023-06-14T06:14:23;95718.81;;;21.07;37.81
75521;BME280;64102;48.628;9.002;2023-06-14T06:16:49;95730.41;;;20.92;36.28
75521;BME280;64102;48.628;9.002;2023-06-14T06:19:14;95727.50;;;20.69;35.77
75521;BME280;64102;48.628;9.002;2023-06-14T06:21:40;95730.13;;;20.63;37.31
75521;BME280;64102;48.628;9.002;2023-06-14T06:24:06;95732.63;;;20.51;36.32
75521;BME280;64102;48.628;9.002;2023-06-14T06:26:32;95723.88;;;21.33;35.13
75521;BME280;64102;48.628;9.002;2023-06-14T06:28:58;95728.78;;;21.48;35.71
75521;BME280;64102;48.628;9.002;2023-06-14T06:31:24;95733.16;;;22.03;35.62
75521;BME280;64102;48.628;9.002;2023-06-14T06:33:50;95731.19;;;22.35;33.74
75521;BME280;64102;48.628;9.002;2023-06-14T06:36:16;95734.41;;;22.37;34.44
75521;BME280;64102;48.628;9.002;2023-06-14T06:38:41;95729.94;;;22.56;33.19
75521;BME280;64102;48.628;9.002;2023-06-14T06:41:07;95734.88;;;22.82;33.14
75521;BME280;64102;48.628;9.002;2023-06-14T06:43:32;95734.09;;;23.23;33.52
75521;BME280;64102;48.628;9.002;2023-06-14T06:45:58;95740.06;;;23.30;31.11
75521;BME280;64102;48.628;9.002;2023-06-14T06:48:23;95744.28;;;23.31;31.49
75521;BME280;64102;48.628;9.002;2023-06-14T06:50:48;95744.97;;;23.27;31.20
75521;BME280;64102;48.628;9.002;2023-06-14T06:53:14;95743.72;;;23.29;31.56
75521;BME280;64102;48.628;9.002;2023-06-14T06:55:40;95752.06;;;22.66;32.74
75521;BME280;64102;48.628;9.002;2023-06-14T06:58:05;95751.03;;;23.15;33.69
75521;BME280;64102;48.628;9.002;2023-06-14T07:00:31;95755.72;;;23.67;31.43
75521;BME280;64102;48.628;9.002;2023-06-14T07:02:57;95756.41;;;24.08;31.86
75521;BME280;64102;48.628;9.002;2023-06-14T07:05:23;95756.88;;;24.29;32.60
75521;BME280;64102;48.628;9.002;2023-06-14T07:07:48;95767.34;;;24.24;31.66
75521;BME280;64102;48.628;9.002;2023-06-14T07:10:13;95759.16;;;23.67;30.91
75521;BME280;64102;48.628;9.002;2023-06-14T07:12:39;95760.88;;;23.73;32.71
75521;BME280;64102;48.628;9.002;2023-06-14T07:15:08;95764.75;;;23.59;32.16
75521;BME280;64102;48.628;9.002;2023-06-14T07:17:34;95769.34;;;23.52;33.83
75521;BME280;64102;48.628;9.002;2023-06-14T07:20:02;95766.59;;;23.58;33.12
75521;BME280;64102;48.628;9.002;2023-06-14T07:22:40;95768.91;;;24.13;31.47
75521;BME280;64102;48.628;9.002;2023-06-14T07:25:09;95771.66;;;23.95;32.19
75521;BME280;64102;48.628;9.002;2023-06-14T07:27:39;95771.47;;;24.71;30.74
75521;BME280;64102;48.628;9.002;2023-06-14T07:30:06;95772.66;;;25.04;31.48
75521;BME280;64102;48.628;9.002;2023-06-14T07:32:31;95772.44;;;25.67;28.11
75521;BME280;64102;48.628;9.002;2023-06-14T07:34:57;95771.69;;;25.71;29.94
75521;BME280;64102;48.628;9.002;2023-06-14T07:37:22;95777.97;;;25.65;28.36
75521;BME280;64102;48.628;9.002;2023-06-14T07:39:47;95777.59;;;26.12;27.36
75521;BME280;64102;48.628;9.002;2023-06-14T07:42:13;95779.28;;;26.56;26.52
75521;BME280;64102;48.628;9.002;2023-06-14T07:44:38;95776.66;;;27.00;26.39
75521;BME280;64102;48.628;9.002;2023-06-14T07:47:04;95789.56;;;26.53;27.02
75521;BME280;64102;48.628;9.002;2023-06-14T07:49:29;95787.72;;;26.53;26.11
75521;BME280;64102;48.628;9.002;2023-06-14T07:51:55;95783.06;;;26.82;25.01
75521;BME280;64102;48.628;9.002;2023-06-14T07:54:20;95787.00;;;27.28;26.52
75521;BME280;64102;48.628;9.002;2023-06-14T07:56:50;95779.91;;;26.63;27.25
75521;BME280;64102;48.628;9.002;2023-06-14T07:59:15;95782.88;;;26.12;27.03
75521;BME280;64102;48.628;9.002;2023-06-14T08:01:40;95790.22;;;26.43;27.21
75521;BME280;64102;48.628;9.002;2023-06-14T08:04:12;95791.63;;;26.67;27.59
75521;BME280;64102;48.628;9.002;2023-06-14T08:06:37;95788.47;;;25.60;26.01
75521;BME280;64102;48.628;9.002;2023-06-14T08:09:03;95790.28;;;25.15;28.41
75521;BME280;64102;48.628;9.002;2023-06-14T08:11:28;95787.44;;;26.50;25.92
75521;BME280;64102;48.628;9.002;2023-06-14T08:13:54;95787.63;;;26.26;26.57
75521;BME280;64102;48.628;9.002;2023-06-14T08:16:19;95788.72;;;25.47;27.32
75521;BME280;64102;48.628;9.002;2023-06-14T08:18:45;95799.94;;;25.09;27.95
75521;BME280;64102;48.628;9.002;2023-06-14T08:21:11;95805.72;;;24.83;27.69
75521;BME280;64102;48.628;9.002;2023-06-14T08:23:36;95802.97;;;25.46;27.03
75521;BME280;64102;48.628;9.002;2023-06-14T08:26:01;95800.91;;;24.91;28.64
75521;BME280;64102;48.628;9.002;2023-06-14T08:28:29;95799.50;;;25.01;27.77
75521;BME280;64102;48.628;9.002;2023-06-14T08:30:54;95805.28;;;25.88;27.42
75521;BME280;64102;48.628;9.002;2023-06-14T08:33:20;95798.06;;;27.20;26.07
75521;BME280;64102;48.628;9.002;2023-06-14T08:35:46;95809.44;;;27.69;26.34
75521;BME280;64102;48.628;9.002;2023-06-14T08:38:11;95806.75;;;26.50;26.66
75521;BME280;64102;48.628;9.002;2023-06-14T08:40:37;95803.97;;;26.84;26.23
75521;BME280;64102;48.628;9.002;2023-06-14T08:43:03;95808.16;;;27.77;24.95
75521;BME280;64102;48.628;9.002;2023-06-14T08:45:29;95800.19;;;27.23;25.51
75521;BME280;64102;48.628;9.002;2023-06-14T08:47:55;95813.25;;;28.15;24.99
75521;BME280;64102;48.628;9.002;2023-06-14T08:50:25;95808.84;;;27.94;24.14
75521;BME280;64102;48.628;9.002;2023-06-14T08:53:01;95812.19;;;27.52;24.42
75521;BME280;64102;48.628;9.002;2023-06-14T08:55:28;95812.53;;;27.93;24.54
75521;BME280;64102;48.628;9.002;2023-06-14T08:57:56;95806.94;;;28.68;23.69
75521;BME280;64102;48.628;9.002;2023-06-14T09:00:26;95823.09;;;27.56;25.37
75521;BME280;64102;48.628;9.002;2023-06-14T09:02:52;95821.03;;;27.14;26.74
75521;BME280;64102;48.628;9.002;2023-06-14T09:05:26;95817.94;;;27.44;24.73
75521;BME280;64102;48.628;9.002;2023-06-14T09:07:53;95813.69;;;28.86;22.46
75521;BME280;64102;48.628;9.002;2023-06-14T09:10:21;95820.41;;;29.14;22.69
75521;BME280;64102;48.628;9.002;2023-06-14T09:12:47;95812.69;;;28.50;23.47
75521;BME280;64102;48.628;9.002;2023-06-14T09:15:13;95817.59;;;27.63;24.50
75521;BME280;64102;48.628;9.002;2023-06-14T09:17:39;95815.13;;;27.29;25.14
75521;BME280;64102;48.628;9.002;2023-06-14T09:20:06;95820.22;;;28.68;23.15
75521;BME280;64102;48.628;9.002;2023-06-14T09:22:38;95824.41;;;29.21;22.33
75521;BME280;64102;48.628;9.002;2023-06-14T09:25:04;95828.25;;;29.61;22.12
75521;BME280;64102;48.628;9.002;2023-06-14T09:27:30;95827.75;;;29.64;22.57
75521;BME280;64102;48.628;9.002;2023-06-14T09:29:56;95828.31;;;30.16;22.54
75521;BME280;64102;48.628;9.002;2023-06-14T09:32:21;95825.63;;;29.86;23.13
75521;BME280;64102;48.628;9.002;2023-06-14T09:34:47;95816.53;;;29.52;22.77
75521;BME280;64102;48.628;9.002;2023-06-14T09:37:26;95819.56;;;31.10;21.76
75521;BME280;64102;48.628;9.002;2023-06-14T09:39:52;95829.91;;;30.12;22.81
75521;BME280;64102;48.628;9.002;2023-06-14T09:42:18;95827.03;;;29.01;23.71
75521;BME280;64102;48.628;9.002;2023-06-14T09:44:47;95835.75;;;30.09;21.00
75521;BME280;64102;48.628;9.002;2023-06-14T09:47:15;95834.16;;;30.08;22.98
75521;BME280;64102;48.628;9.002;2023-06-14T09:49:40;95828.31;;;28.93;23.23
75521;BME280;64102;48.628;9.002;2023-06-14T09:52:06;95827.69;;;29.39;22.69
75521;BME280;64102;48.628;9.002;2023-06-14T09:54:36;95827.44;;;29.55;22.49
75521;BME280;64102;48.628;9.002;2023-06-14T09:57:06;95825.25;;;28.65;22.60
75521;BME280;64102;48.628;9.002;2023-06-14T09:59:33;95826.91;;;26.73;24.12
75521;BME280;64102;48.628;9.002;2023-06-14T10:02:06;95827.63;;;27.87;24.90
75521;BME280;64102;48.628;9.002;2023-06-14T10:04:34;95834.31;;;28.27;22.52
75521;BME280;64102;48.628;9.002;2023-06-14T10:07:00;95821.13;;;29.97;21.05
75521;BME280;64102;48.628;9.002;2023-06-14T10:09:28;95822.59;;;29.27;21.65
75521;BME280;64102;48.628;9.002;2023-06-14T10:11:54;95818.53;;;28.10;21.04
75521;BME280;64102;48.628;9.002;2023-06-14T10:14:20;95822.69;;;29.67;22.13
75521;BME280;64102;48.628;9.002;2023-06-14T10:16:56;95824.53;;;30.43;19.64
75521;BME280;64102;48.628;9.002;2023-06-14T10:19:30;95808.41;;;31.91;19.63
75521;BME280;64102;48.628;9.002;2023-06-14T10:22:01;95808.41;;;31.47;18.40
75521;BME280;64102;48.628;9.002;2023-06-14T10:24:39;95814.00;;;31.90;20.40
75521;BME280;64102;48.628;9.002;2023-06-14T10:27:06;95820.16;;;30.92;19.49
75521;BME280;64102;48.628;9.002;2023-06-14T10:32:26;95808.56;;;29.37;22.31
75521;BME280;64102;48.628;9.002;2023-06-14T10:35:15;95818.69;;;27.98;22.69
75521;BME280;64102;48.628;9.002;2023-06-14T10:37:41;95817.63;;;26.32;26.14
75521;BME280;64102;48.628;9.002;2023-06-14T10:40:07;95820.78;;;26.89;24.25
75521;BME280;64102;48.628;9.002;2023-06-14T10:42:33;95816.81;;;26.15;24.30
75521;BME280;64102;48.628;9.002;2023-06-14T10:45:00;95824.31;;;25.28;25.69
75521;BME280;64102;48.628;9.002;2023-06-14T10:47:27;95814.66;;;25.78;25.04
75521;BME280;64102;48.628;9.002;2023-06-14T10:50:02;95809.38;;;28.75;22.48
75521;BME280;64102;48.628;9.002;2023-06-14T10:52:28;95818.28;;;26.83;22.58
75521;BME280;64102;48.628;9.002;2023-06-14T10:55:05;95817.22;;;25.73;25.53
75521;BME280;64102;48.628;9.002;2023-06-14T10:57:35;95811.13;;;25.56;26.62
75521;BME280;64102;48.628;9.002;2023-06-14T11:00:03;95808.38;;;28.91;22.44
75521;BME280;64102;48.628;9.002;2023-06-14T11:03:15;95806.38;;;30.70;20.71
75521;BME280;64102;48.628;9.002;2023-06-14T11:11:13;95822.78;;;24.52;27.23
75521;BME280;64102;48.628;9.002;2023-06-14T11:13:41;95827.72;;;25.85;25.27
75521;BME280;64102;48.628;9.002;2023-06-14T11:16:13;95821.13;;;27.73;24.37
75521;BME280;64102;48.628;9.002;2023-06-14T11:18:39;95817.50;;;29.20;21.33
75521;BME280;64102;48.628;9.002;2023-06-14T11:21:05;95815.22;;;29.54;20.56
75521;BME280;64102;48.628;9.002;2023-06-14T11:23:31;95815.13;;;29.29;22.47
75521;BME280;64102;48.628;9.002;2023-06-14T11:25:56;95814.94;;;30.57;20.12
75521;BME280;64102;48.628;9.002;2023-06-14T11:28:21;95807.00;;;29.81;20.30
75521;BME280;64102;48.628;9.002;2023-06-14T11:30:49;95800.03;;;27.88;22.93
75521;BME280;64102;48.628;9.002;2023-06-14T11:33:24;95816.00;;;26.31;24.52
75521;BME280;64102;48.628;9.002;2023-06-14T11:35:51;95819.91;;;25.17;27.08
75521;BME280;64102;48.628;9.002;2023-06-14T11:38:16;95816.72;;;25.60;27.30
75521;BME280;64102;48.628;9.002;2023-06-14T11:40:41;95804.31;;;25.94;25.36
75521;BME280;64102;48.628;9.002;2023-06-14T11:43:07;95801.94;;;26.86;24.82
75521;BME280;64102;48.628;9.002;2023-06-14T11:45:32;95805.38;;;28.30;22.98
75521;BME280;64102;48.628;9.002;2023-06-14T11:47:58;95800.31;;;28.71;21.36
75521;BME280;64102;48.628;9.002;2023-06-14T11:50:24;95801.94;;;29.79;20.68
75521;BME280;64102;48.628;9.002;2023-06-14T11:52:57;95791.44;;;30.74;21.13
75521;BME280;64102;48.628;9.002;2023-06-14T11:55:25;95799.13;;;30.81;19.22
75521;BME280;64102;48.628;9.002;2023-06-14T11:57:51;95788.81;;;29.22;21.06
75521;BME280;64102;48.628;9.002;2023-06-14T12:00:19;95794.53;;;27.36;22.59
75521;BME280;64102;48.628;9.002;2023-06-14T12:02:56;95806.00;;;25.38;25.50
75521;BME280;64102;48.628;9.002;2023-06-14T12:05:22;95806.94;;;25.32;26.38
75521;BME280;64102;48.628;9.002;2023-06-14T12:07:48;95806.28;;;25.08;27.72
75521;BME280;64102;48.628;9.002;2023-06-14T12:10:15;95801.13;;;25.02;26.43
75521;BME280;64102;48.628;9.002;2023-06-14T12:12:41;95792.69;;;26.11;25.23
75521;BME280;64102;48.628;9.002;2023-06-14T12:15:08;95799.25;;;26.25;25.08
75521;BME280;64102;48.628;9.002;2023-06-14T12:17:35;95795.31;;;26.66;25.11
75521;BME280;64102;48.628;9.002;2023-06-14T12:20:14;95798.47;;;27.34;25.51
75521;BME280;64102;48.628;9.002;2023-06-14T12:22:56;95803.81;;;25.18;26.89
75521;BME280;64102;48.628;9.002;2023-06-14T12:25:32;95789.41;;;26.21;27.64
75521;BME280;64102;48.628;9.002;2023-06-14T12:27:58;95795.84;;;28.29;24.90
75521;BME280;64102;48.628;9.002;2023-06-14T12:30:24;95794.16;;;28.60;24.12
75521;BME280;64102;48.628;9.002;2023-06-14T12:32:49;95793.88;;;27.83;23.90
75521;BME280;64102;48.628;9.002;2023-06-14T12:35:16;95800.03;;;29.60;23.73
75521;BME280;64102;48.628;9.002;2023-06-14T12:37:42;95797.78;;;30.83;21.99
75521;BME280;64102;48.628;9.002;2023-06-14T12:40:08;95787.63;;;30.90;21.30
75521;BME280;64102;48.628;9.002;2023-06-14T12:42:33;95788.69;;;31.43;21.13
75521;BME280;64102;48.628;9.002;2023-06-14T12:45:00;95786.13;;;30.69;19.74
75521;BME280;64102;48.628;9.002;2023-06-14T12:47:25;95786.19;;;31.18;20.19
75521;BME280;64102;48.628;9.002;2023-06-14T12:49:51;95793.59;;;31.26;19.40
75521;BME280;64102;48.628;9.002;2023-06-14T12:52:17;95785.38;;;31.18;19.64
75521;BME280;64102;48.628;9.002;2023-06-14T12:54:42;95796.81;;;30.59;21.12
75521;BME280;64102;48.628;9.002;2023-06-14T12:57:08;95797.13;;;29.36;22.98
75521;BME280;64102;48.628;9.002;2023-06-14T12:59:33;95802.28;;;26.17;25.82
75521;BME280;64102;48.628;9.002;2023-06-14T13:02:10;95804.56;;;25.30;26.30
75521;BME280;64102;48.628;9.002;2023-06-14T13:04:35;95799.66;;;25.67;27.13
75521;BME280;64102;48.628;9.002;2023-06-14T13:07:01;95805.81;;;26.61;25.74
75521;BME280;64102;48.628;9.002;2023-06-14T13:09:26;95795.66;;;28.09;23.05
75521;BME280;64102;48.628;9.002;2023-06-14T13:11:52;95797.72;;;28.86;22.28
75521;BME280;64102;48.628;9.002;2023-06-14T13:14:17;95802.72;;;29.75;22.56